createdAt,value
2019-04-20T00:00:21.698Z,94.00
2019-04-20T00:00:58.518Z,82.50
2019-04-20T00:01:34.073Z,96.80
2019-04-20T00:02:12.545Z,89.50
2019-04-20T00:02:44.028Z,77.80
2019-04-20T00:03:18.540Z,73.90
2019-04-20T00:03:53.838Z,82.20
2019-04-20T00:04:33.448Z,80.40
2019-04-20T00:05:05.285Z,66.70
2019-04-20T00:05:41.280Z,69.80
2019-04-20T00:06:15.375Z,73.00
2019-04-20T00:06:53.958Z,78.80
2019-04-20T00:07:30.973Z,71.60
2019-04-20T00:08:07.762Z,67.00
2019-04-20T00:08:39.453Z,70.10
2019-04-20T00:09:15.808Z,72.70
2019-04-20T00:09:55.243Z,59.10
2019-04-20T00:10:24.352Z,56.80
2019-04-20T00:11:07.358Z,57.40
2019-04-20T00:11:45.918Z,66.10
2019-04-20T00:12:17.204Z,70.90
2019-04-20T00:12:58.436Z,67.00
2019-04-20T00:13:28.808Z,49.10
2019-04-20T00:14:04.007Z,43.70
2019-04-20T00:14:33.876Z,47.30
2019-04-20T00:15:06.999Z,47.90
2019-04-20T00:15:42.939Z,61.40
2019-04-20T00:16:16.995Z,75.00
2019-04-20T00:16:52.764Z,62.00
2019-04-20T00:17:28.602Z,57.40
2019-04-20T00:18:05.375Z,50.00
2019-04-20T00:18:43.011Z,69.30
2019-04-20T00:19:16.185Z,59.90
2019-04-20T00:19:53.810Z,60.10
2019-04-20T00:20:29.039Z,60.60
2019-04-20T00:21:05.537Z,71.10
2019-04-20T00:21:38.844Z,64.20
2019-04-20T00:22:12.310Z,44.70
2019-04-20T00:22:49.325Z,50.70
2019-04-20T00:23:28.863Z,37.50
2019-04-20T00:23:56.610Z,29.00
2019-04-20T00:24:35.397Z,37.00
2019-04-20T00:25:12.231Z,40.80
2019-04-20T00:25:53.159Z,37.20
2019-04-20T00:26:24.867Z,46.90
2019-04-20T00:27:50.306Z,36.50
2019-04-20T00:28:19.871Z,32.40
2019-04-20T00:28:58.928Z,39.40
2019-04-20T00:29:33.875Z,35.50
2019-04-20T00:30:09.127Z,31.10
2019-04-20T00:30:49.670Z,28.80
2019-04-20T00:31:19.063Z,32.70
2019-04-20T00:31:49.200Z,32.20
2019-04-20T00:32:19.903Z,31.50
2019-04-20T00:32:58.530Z,33.60
2019-04-20T00:33:38.841Z,30.50
2019-04-20T00:34:07.942Z,35.50
2019-04-20T00:34:37.258Z,37.20
2019-04-20T00:35:08.299Z,34.90
2019-04-20T00:35:44.291Z,37.70
2019-04-20T00:36:20.107Z,32.20
2019-04-20T00:36:54.435Z,36.60
2019-04-20T00:37:29.868Z,40.70
2019-04-20T00:38:05.633Z,35.30
2019-04-20T00:38:47.738Z,32.10
2019-04-20T00:39:17.163Z,35.70
2019-04-20T00:39:51.201Z,36.50
2019-04-20T00:40:26.807Z,38.20
2019-04-20T00:41:05.634Z,35.50
2019-04-20T00:41:42.416Z,38.60
2019-04-20T00:42:15.886Z,39.00
2019-04-20T00:42:53.345Z,32.90
2019-04-20T00:43:30.122Z,36.60
2019-04-20T00:44:04.754Z,42.40
2019-04-20T00:44:38.081Z,41.50
2019-04-20T00:45:15.963Z,31.70
2019-04-20T00:45:53.728Z,23.60
2019-04-20T00:46:27.834Z,20.90
2019-04-20T00:47:11.149Z,22.50
2019-04-20T00:47:42.988Z,31.20
2019-04-20T00:48:18.562Z,34.70
2019-04-20T00:48:50.819Z,32.60
2019-04-20T00:49:30.750Z,45.90
2019-04-20T00:50:44.520Z,49.50
2019-04-20T00:51:26.239Z,41.10
2019-04-20T00:52:10.736Z,32.40
2019-04-20T00:52:45.534Z,26.60
2019-04-20T00:53:00.637Z,32.70
2019-04-20T00:53:31.514Z,39.00
2019-04-20T00:54:00.884Z,35.60
2019-04-20T00:54:36.832Z,35.00
2019-04-20T00:55:12.701Z,26.80
2019-04-20T00:55:46.908Z,25.70
2019-04-20T00:56:22.478Z,29.10
2019-04-20T00:57:12.050Z,34.30
2019-04-20T00:57:41.830Z,32.80
2019-04-20T00:58:16.441Z,26.10
2019-04-20T00:59:04.260Z,27.20
2019-04-20T00:59:31.624Z,32.60
2019-04-20T01:00:11.101Z,28.90
2019-04-20T01:00:58.260Z,31.60
2019-04-20T01:01:25.163Z,32.40
2019-04-20T01:02:01.028Z,32.80
2019-04-20T01:02:29.615Z,24.30
2019-04-20T01:03:11.037Z,15.60
2019-04-20T01:03:42.289Z,20.20
2019-04-20T01:04:20.523Z,25.80
2019-04-20T01:04:57.966Z,25.90
2019-04-20T01:05:27.908Z,24.80
2019-04-20T01:06:11.088Z,18.20
2019-04-20T01:06:36.844Z,15.30
2019-04-20T01:07:11.292Z,22.00
2019-04-20T01:07:43.126Z,27.40
2019-04-20T01:08:11.212Z,31.70
2019-04-20T01:08:46.352Z,28.40
2019-04-20T01:09:20.779Z,28.90
2019-04-20T01:09:56.309Z,24.10
2019-04-20T01:10:38.242Z,24.00
2019-04-20T01:11:08.111Z,25.20
2019-04-20T01:11:45.169Z,28.80
2019-04-20T01:12:24.134Z,26.20
2019-04-20T01:13:02.381Z,24.40
2019-04-20T01:13:30.064Z,25.40
2019-04-20T01:14:07.814Z,38.00
2019-04-20T01:14:46.623Z,45.20
2019-04-20T01:15:25.576Z,35.10
2019-04-20T01:15:55.364Z,30.00
2019-04-20T01:16:36.302Z,30.40
2019-04-20T01:17:11.378Z,35.50
2019-04-20T01:17:37.871Z,38.90
2019-04-20T01:18:14.032Z,37.50
2019-04-20T01:18:48.325Z,38.00
2019-04-20T01:19:23.825Z,41.10
2019-04-20T01:20:06.208Z,32.80
2019-04-20T01:20:41.414Z,28.30
2019-04-20T01:21:20.275Z,38.40
2019-04-20T01:21:57.868Z,34.00
2019-04-20T01:22:28.696Z,28.50
2019-04-20T01:23:07.451Z,30.60
2019-04-20T01:23:44.250Z,22.90
2019-04-20T01:24:20.193Z,17.60
2019-04-20T01:24:50.088Z,16.80
2019-04-20T01:25:30.078Z,18.40
2019-04-20T01:26:05.496Z,31.80
2019-04-20T01:26:41.707Z,34.50
2019-04-20T01:27:23.716Z,37.70
2019-04-20T01:28:04.471Z,29.90
2019-04-20T01:28:38.529Z,24.30
2019-04-20T01:29:09.122Z,33.40
2019-04-20T01:29:39.287Z,43.20
2019-04-20T01:30:16.018Z,38.90
2019-04-20T01:30:50.625Z,31.60
2019-04-20T01:31:28.486Z,33.20
2019-04-20T01:32:07.131Z,34.70
2019-04-20T01:32:49.215Z,40.60
2019-04-20T01:33:16.358Z,45.50
2019-04-20T01:33:51.960Z,39.40
2019-04-20T01:34:26.548Z,30.20
2019-04-20T01:34:59.837Z,36.30
2019-04-20T01:35:47.884Z,35.30
2019-04-20T01:36:21.590Z,38.30
2019-04-20T01:36:52.055Z,35.60
2019-04-20T01:37:27.436Z,31.80
2019-04-20T01:38:08.530Z,26.70
2019-04-20T01:38:39.958Z,18.80
2019-04-20T01:39:11.200Z,22.60
2019-04-20T01:39:39.937Z,30.40
2019-04-20T01:40:09.934Z,32.20
2019-04-20T01:40:44.484Z,29.20
2019-04-20T01:41:20.325Z,42.50
2019-04-20T01:41:56.116Z,35.30
2019-04-20T01:42:30.404Z,25.60
2019-04-20T01:43:05.747Z,30.70
2019-04-20T01:43:41.555Z,34.30
2019-04-20T01:44:18.883Z,35.00
2019-04-20T01:44:53.792Z,35.10
2019-04-20T01:45:32.426Z,36.00
2019-04-20T01:46:09.308Z,35.70
2019-04-20T01:46:39.133Z,36.40
2019-04-20T01:47:14.955Z,39.30
2019-04-20T01:47:53.072Z,31.40
2019-04-20T01:48:28.663Z,25.10
2019-04-20T01:49:06.933Z,31.50
2019-04-20T01:49:36.871Z,34.30
2019-04-20T01:50:18.610Z,33.60
2019-04-20T01:50:54.811Z,35.90
2019-04-20T01:51:27.231Z,32.00
2019-04-20T01:52:09.701Z,25.60
2019-04-20T01:52:47.029Z,22.20
2019-04-20T01:53:18.966Z,23.00
2019-04-20T01:53:58.420Z,32.70
2019-04-20T01:54:31.414Z,34.00
2019-04-20T01:55:12.698Z,31.20
2019-04-20T01:55:45.652Z,24.80
2019-04-20T01:56:18.115Z,20.10
2019-04-20T01:56:52.008Z,29.00
2019-04-20T01:57:23.837Z,30.00
2019-04-20T01:58:07.984Z,34.00
2019-04-20T01:58:50.527Z,29.60
2019-04-20T01:59:16.365Z,20.60
2019-04-20T01:59:47.047Z,20.90
2019-04-20T02:00:20.624Z,28.10
2019-04-20T02:00:51.177Z,33.80
2019-04-20T02:01:28.036Z,27.50
2019-04-20T02:02:04.634Z,34.10
2019-04-20T02:02:35.468Z,26.90
2019-04-20T02:03:10.260Z,24.70
2019-04-20T02:03:48.258Z,26.80
2019-04-20T02:04:27.086Z,32.60
2019-04-20T02:05:00.634Z,30.30
2019-04-20T02:05:34.204Z,22.90
2019-04-20T02:06:09.906Z,27.40
2019-04-20T02:06:48.077Z,32.50
2019-04-20T02:07:18.430Z,29.20
2019-04-20T02:07:54.175Z,27.60
2019-04-20T02:08:29.156Z,24.00
2019-04-20T02:09:08.000Z,25.60
2019-04-20T02:09:43.372Z,35.00
2019-04-20T02:10:15.140Z,31.10
2019-04-20T02:10:53.684Z,27.50
2019-04-20T02:11:29.589Z,27.30
2019-04-20T02:12:06.976Z,25.00
2019-04-20T02:12:38.838Z,23.30
2019-04-20T02:13:11.156Z,31.10
2019-04-20T02:13:52.849Z,31.70
2019-04-20T02:14:28.717Z,32.90
2019-04-20T02:15:00.441Z,38.70
2019-04-20T02:15:39.965Z,34.60
2019-04-20T02:16:16.912Z,33.60
2019-04-20T02:16:47.614Z,36.60
2019-04-20T02:17:26.032Z,34.80
2019-04-20T02:18:07.492Z,36.80
2019-04-20T02:18:41.434Z,39.00
2019-04-20T02:19:21.362Z,37.20
2019-04-20T02:20:02.323Z,35.90
2019-04-20T02:20:34.540Z,35.80
2019-04-20T02:21:38.612Z,45.40
2019-04-20T02:22:13.546Z,47.50
2019-04-20T02:22:51.835Z,44.60
2019-04-20T02:23:22.371Z,48.70
2019-04-20T02:23:52.595Z,43.20
2019-04-20T02:24:21.695Z,42.70
2019-04-20T02:24:57.064Z,52.10
2019-04-20T02:25:31.671Z,51.50
2019-04-20T02:26:07.285Z,38.20
2019-04-20T02:26:43.045Z,36.10
2019-04-20T02:27:20.617Z,44.90
2019-04-20T02:27:58.070Z,45.90
2019-04-20T02:28:58.585Z,40.00
2019-04-20T02:29:30.694Z,50.20
2019-04-20T02:30:04.455Z,52.50
2019-04-20T02:30:53.908Z,46.90
2019-04-20T02:31:37.558Z,36.10
2019-04-20T02:32:51.130Z,54.60
2019-04-20T02:33:21.509Z,57.10
2019-04-20T02:33:58.983Z,40.10
2019-04-20T02:34:29.192Z,28.90
2019-04-20T02:34:55.465Z,29.30
2019-04-20T02:35:30.837Z,33.50
2019-04-20T02:36:10.386Z,38.00
2019-04-20T02:36:53.202Z,32.20
2019-04-20T02:37:45.450Z,28.40
2019-04-20T02:38:39.212Z,53.50
2019-04-20T02:39:27.000Z,45.00
2019-04-20T02:39:47.155Z,47.90
2019-04-20T02:40:15.748Z,50.20
2019-04-20T02:40:54.088Z,52.50
2019-04-20T02:41:30.022Z,53.70
2019-04-20T02:41:58.254Z,48.30
2019-04-20T02:42:48.996Z,51.00
2019-04-20T02:43:30.447Z,44.80
2019-04-20T02:43:57.707Z,40.70
2019-04-20T02:44:21.637Z,41.10
2019-04-20T02:45:05.096Z,47.60
2019-04-20T02:45:34.865Z,48.30
2019-04-20T02:46:00.834Z,47.20
2019-04-20T02:46:48.865Z,52.10
2019-04-20T02:47:24.670Z,38.50
2019-04-20T02:47:56.600Z,42.80
2019-04-20T02:48:21.640Z,43.70
2019-04-20T02:49:12.871Z,53.60
2019-04-20T02:50:30.186Z,57.80
2019-04-20T02:50:50.031Z,38.60
2019-04-20T02:51:28.835Z,34.20
2019-04-20T02:52:46.137Z,47.70
2019-04-20T02:53:13.719Z,49.20
2019-04-20T02:54:02.241Z,57.30
2019-04-20T02:54:20.353Z,56.80
2019-04-20T02:55:02.210Z,59.80
2019-04-20T02:55:47.714Z,51.50
2019-04-20T02:56:49.824Z,48.20
2019-04-20T02:59:31.535Z,51.30
2019-04-20T03:00:23.943Z,61.80
2019-04-20T03:00:58.324Z,67.00
2019-04-20T03:01:17.617Z,45.50
2019-04-20T03:01:50.278Z,23.50
2019-04-20T03:02:23.667Z,26.40
2019-04-20T03:02:53.318Z,31.30
2019-04-20T03:03:26.526Z,44.40
2019-04-20T03:03:57.658Z,50.90
2019-04-20T03:04:37.361Z,43.70
2019-04-20T03:05:16.482Z,37.40
2019-04-20T03:05:47.546Z,46.30
2019-04-20T03:06:23.293Z,51.50
2019-04-20T03:07:05.455Z,42.50
2019-04-20T03:07:48.127Z,30.90
2019-04-20T03:08:19.115Z,36.90
2019-04-20T03:08:59.493Z,36.80
2019-04-20T03:09:31.544Z,38.40
2019-04-20T03:10:06.594Z,45.30
2019-04-20T03:10:46.423Z,44.50
2019-04-20T03:11:21.254Z,38.00
2019-04-20T03:12:08.063Z,40.20
2019-04-20T03:12:34.460Z,39.90
2019-04-20T03:13:05.333Z,39.30
2019-04-20T03:13:36.743Z,46.80
2019-04-20T03:14:10.622Z,44.30
2019-04-20T03:14:42.383Z,45.80
2019-04-20T03:15:29.563Z,39.20
2019-04-20T03:16:00.078Z,26.30
2019-04-20T03:16:31.868Z,28.40
2019-04-20T03:17:15.235Z,36.40
2019-04-20T03:17:46.377Z,32.90
2019-04-20T03:18:19.226Z,21.00
2019-04-20T03:18:57.409Z,16.60
2019-04-20T03:19:30.253Z,22.20
2019-04-20T03:19:57.393Z,34.10
2019-04-20T03:20:48.893Z,31.20
2019-04-20T03:22:02.371Z,27.40
2019-04-20T03:22:48.361Z,34.00
2019-04-20T03:23:42.571Z,27.10
2019-04-20T03:24:20.437Z,29.20
2019-04-20T03:24:54.967Z,32.50
2019-04-20T03:25:33.579Z,30.30
2019-04-20T03:26:06.465Z,27.80
2019-04-20T03:26:36.768Z,29.00
2019-04-20T03:27:10.824Z,23.70
2019-04-20T03:27:44.447Z,37.50
2019-04-20T03:28:23.615Z,36.00
2019-04-20T03:28:56.661Z,30.80
2019-04-20T03:29:37.123Z,29.30
2019-04-20T03:30:22.870Z,32.00
2019-04-20T03:31:45.174Z,24.00
2019-04-20T03:33:23.111Z,18.70
2019-04-20T03:34:03.299Z,16.60
2019-04-20T03:34:51.600Z,20.10
2019-04-20T03:35:51.099Z,25.00
2019-04-20T03:36:15.593Z,25.20
2019-04-20T03:36:46.963Z,21.20
2019-04-20T03:37:21.894Z,16.50
2019-04-20T03:37:52.629Z,22.00
2019-04-20T03:38:19.848Z,20.80
2019-04-20T03:38:57.290Z,20.50
2019-04-20T03:39:33.451Z,20.60
2019-04-20T03:40:04.367Z,24.20
2019-04-20T03:40:42.967Z,26.60
2019-04-20T03:41:16.563Z,27.60
2019-04-20T03:41:43.549Z,20.50
2019-04-20T03:42:12.516Z,15.70
2019-04-20T03:42:48.656Z,17.20
2019-04-20T03:43:24.442Z,25.90
2019-04-20T03:44:04.465Z,24.20
2019-04-20T03:44:35.839Z,20.60
2019-04-20T03:45:13.137Z,17.00
2019-04-20T03:45:51.718Z,13.90
2019-04-20T03:46:30.085Z,18.00
2019-04-20T03:46:59.659Z,25.00
2019-04-20T03:47:42.593Z,25.70
2019-04-20T03:48:23.207Z,22.20
2019-04-20T03:49:01.111Z,16.30
2019-04-20T03:49:42.425Z,14.50
2019-04-20T03:50:18.623Z,16.30
2019-04-20T03:50:49.185Z,20.60
2019-04-20T03:51:29.114Z,21.20
2019-04-20T03:51:57.387Z,25.10
2019-04-20T03:52:34.053Z,26.60
2019-04-20T03:53:12.990Z,29.10
2019-04-20T03:53:46.758Z,30.70
2019-04-20T03:54:18.480Z,34.10
2019-04-20T03:54:47.849Z,35.20
2019-04-20T03:55:26.193Z,39.60
2019-04-20T03:56:05.142Z,44.30
2019-04-20T03:56:39.005Z,41.90
2019-04-20T03:57:23.502Z,32.90
2019-04-20T03:57:57.533Z,33.70
2019-04-20T03:58:28.772Z,38.80
2019-04-20T03:59:03.103Z,37.30
2019-04-20T03:59:43.695Z,33.00
2019-04-20T04:00:16.164Z,33.90
2019-04-20T04:00:45.944Z,25.50
2019-04-20T04:01:43.351Z,23.80
2019-04-20T04:02:22.259Z,32.70
2019-04-20T04:02:45.466Z,38.30
2019-04-20T04:03:26.961Z,30.90
2019-04-20T04:03:53.765Z,29.50
2019-04-20T04:04:31.218Z,29.60
2019-04-20T04:04:54.582Z,28.60
2019-04-20T04:05:27.697Z,26.20
2019-04-20T04:06:04.137Z,18.90
2019-04-20T04:06:33.577Z,13.00
2019-04-20T04:07:01.860Z,12.20
2019-04-20T04:07:40.588Z,13.10
2019-04-20T04:08:20.474Z,14.00
2019-04-20T04:08:56.138Z,13.20
2019-04-20T04:09:32.771Z,12.50
2019-04-20T04:10:09.778Z,12.40
2019-04-20T04:10:53.373Z,12.90
2019-04-20T04:11:24.428Z,13.60
2019-04-20T04:11:55.969Z,14.40
2019-04-20T04:12:25.179Z,13.20
2019-04-20T04:12:53.108Z,12.70
2019-04-20T04:13:29.111Z,12.50
2019-04-20T04:14:04.916Z,14.10
2019-04-20T04:14:40.873Z,15.90
2019-04-20T04:15:15.153Z,16.00
2019-04-20T04:15:55.621Z,15.70
2019-04-20T04:16:32.907Z,15.60
2019-04-20T04:17:02.940Z,17.00
2019-04-20T04:17:41.568Z,16.60
2019-04-20T04:18:17.792Z,17.40
2019-04-20T04:18:53.329Z,21.00
2019-04-20T04:19:29.554Z,20.70
2019-04-20T04:20:05.046Z,22.20
2019-04-20T04:20:41.894Z,24.30
2019-04-20T04:21:16.159Z,24.40
2019-04-20T04:21:59.242Z,19.60
2019-04-20T04:22:37.745Z,19.50
2019-04-20T04:23:10.286Z,26.90
2019-04-20T04:23:44.474Z,35.00
2019-04-20T04:24:16.954Z,30.00
2019-04-20T04:24:57.071Z,24.70
2019-04-20T04:25:29.792Z,28.40
2019-04-20T04:26:15.040Z,31.20
2019-04-20T04:26:42.711Z,29.10
2019-04-20T04:27:22.528Z,29.80
2019-04-20T04:27:59.464Z,29.90
2019-04-20T04:28:28.505Z,25.80
2019-04-20T04:29:18.118Z,24.70
2019-04-20T04:29:43.048Z,23.90
2019-04-20T04:30:14.816Z,18.90
2019-04-20T04:30:57.965Z,17.40
2019-04-20T04:31:28.141Z,21.10
2019-04-20T04:32:14.133Z,27.80
2019-04-20T04:33:00.157Z,40.50
2019-04-20T04:33:55.557Z,27.80
2019-04-20T04:34:58.026Z,20.90
2019-04-20T04:35:31.160Z,26.70
2019-04-20T04:36:11.386Z,26.60
2019-04-20T04:36:52.656Z,24.40
2019-04-20T04:37:26.936Z,31.40
2019-04-20T04:37:57.092Z,28.30
2019-04-20T04:38:39.584Z,26.30
2019-04-20T04:39:21.139Z,34.80
2019-04-20T04:39:49.045Z,30.60
2019-04-20T04:40:37.307Z,33.30
2019-04-20T04:41:04.849Z,33.60
2019-04-20T04:41:31.042Z,35.50
2019-04-20T04:42:07.049Z,27.20
2019-04-20T04:42:45.531Z,26.20
2019-04-20T04:43:22.186Z,34.20
2019-04-20T04:43:44.383Z,41.40
2019-04-20T04:44:23.578Z,40.70
2019-04-20T04:44:53.653Z,39.70
2019-04-20T04:45:25.015Z,39.50
2019-04-20T04:45:55.607Z,34.50
2019-04-20T04:46:33.910Z,32.90
2019-04-20T04:47:08.725Z,34.60
2019-04-20T04:47:42.822Z,29.20
2019-04-20T04:48:23.847Z,24.70
2019-04-20T04:48:54.661Z,23.90
2019-04-20T04:49:34.165Z,23.30
2019-04-20T04:50:11.080Z,34.80
2019-04-20T04:50:47.469Z,44.60
2019-04-20T04:51:20.839Z,37.30
2019-04-20T04:51:57.440Z,26.80
2019-04-20T04:52:32.127Z,23.40
2019-04-20T04:53:09.349Z,23.20
2019-04-20T04:53:46.862Z,28.50
2019-04-20T04:54:21.588Z,37.00
2019-04-20T04:54:54.338Z,32.90
2019-04-20T04:55:32.740Z,36.50
2019-04-20T04:56:04.830Z,37.30
2019-04-20T04:56:33.607Z,41.40
2019-04-20T04:57:09.490Z,35.60
2019-04-20T04:57:43.620Z,38.60
2019-04-20T04:58:19.545Z,32.80
2019-04-20T04:58:54.356Z,27.50
2019-04-20T04:59:29.823Z,23.70
2019-04-20T05:00:05.634Z,25.70
2019-04-20T05:00:40.802Z,29.40
2019-04-20T05:01:21.718Z,28.80
2019-04-20T05:01:54.947Z,31.80
2019-04-20T05:02:33.394Z,30.20
2019-04-20T05:03:14.528Z,30.50
2019-04-20T05:04:05.288Z,31.50
2019-04-20T05:04:35.241Z,29.30
2019-04-20T05:05:12.926Z,22.60
2019-04-20T05:05:41.332Z,26.90
2019-04-20T05:06:17.105Z,27.80
2019-04-20T05:06:49.463Z,26.80
2019-04-20T05:07:22.122Z,23.50
2019-04-20T05:07:58.355Z,22.60
2019-04-20T05:08:27.415Z,24.50
2019-04-20T05:09:00.196Z,18.10
2019-04-20T05:09:31.798Z,16.60
2019-04-20T05:10:07.617Z,20.10
2019-04-20T05:10:42.160Z,23.30
2019-04-20T05:11:17.407Z,26.10
2019-04-20T05:11:59.730Z,26.20
2019-04-20T05:12:31.363Z,18.50
2019-04-20T05:13:04.915Z,17.50
2019-04-20T05:13:47.960Z,22.30
2019-04-20T05:14:21.603Z,28.10
2019-04-20T05:14:57.906Z,22.60
2019-04-20T05:15:40.436Z,16.10
2019-04-20T05:16:13.241Z,20.80
2019-04-20T05:16:50.021Z,23.40
2019-04-20T05:17:26.156Z,24.00
2019-04-20T05:18:01.539Z,18.20
2019-04-20T05:18:44.854Z,13.90
2019-04-20T05:19:19.620Z,16.30
2019-04-20T05:19:53.080Z,20.10
2019-04-20T05:20:24.199Z,21.90
2019-04-20T05:21:05.897Z,21.30
2019-04-20T05:21:38.971Z,19.00
2019-04-20T05:22:15.937Z,17.30
2019-04-20T05:22:48.276Z,21.30
2019-04-20T05:23:19.472Z,19.20
2019-04-20T05:23:53.353Z,17.00
2019-04-20T05:24:30.491Z,16.10
2019-04-20T05:25:12.872Z,17.40
2019-04-20T05:25:50.923Z,17.80
2019-04-20T05:26:19.726Z,17.00
2019-04-20T05:26:55.596Z,13.90
2019-04-20T05:27:30.079Z,11.40
2019-04-20T05:28:03.040Z,12.40
2019-04-20T05:28:33.623Z,14.40
2019-04-20T05:29:07.924Z,15.50
2019-04-20T05:29:34.975Z,13.60
2019-04-20T05:30:09.729Z,12.20
2019-04-20T05:30:48.609Z,12.20
2019-04-20T05:31:24.444Z,13.20
2019-04-20T05:32:02.775Z,13.10
2019-04-20T05:32:39.695Z,13.10
2019-04-20T05:33:09.120Z,11.90
2019-04-20T05:34:01.208Z,11.30
2019-04-20T05:34:38.988Z,12.80
2019-04-20T05:35:16.053Z,13.50
2019-04-20T05:35:45.693Z,12.20
2019-04-20T05:36:23.599Z,11.50
2019-04-20T05:36:57.331Z,11.90
2019-04-20T05:37:41.389Z,13.20
2019-04-20T05:38:13.208Z,12.90
2019-04-20T05:38:48.959Z,13.00
2019-04-20T05:40:01.514Z,11.10
2019-04-20T05:40:32.708Z,11.30
2019-04-20T05:41:04.625Z,12.60
2019-04-20T05:41:37.343Z,13.20
2019-04-20T05:42:20.294Z,12.50
2019-04-20T05:42:52.520Z,12.40
2019-04-20T05:43:27.504Z,10.90
2019-04-20T05:43:59.827Z,12.30
2019-04-20T05:44:44.277Z,13.40
2019-04-20T05:45:11.633Z,12.90
2019-04-20T05:45:41.379Z,12.30
2019-04-20T05:46:26.393Z,12.70
2019-04-20T05:47:00.992Z,12.80
2019-04-20T05:47:34.367Z,13.40
2019-04-20T05:48:10.363Z,12.10
2019-04-20T05:48:48.782Z,10.40
2019-04-20T05:49:23.314Z,11.30
2019-04-20T05:49:53.757Z,12.90
2019-04-20T05:50:33.558Z,12.30
2019-04-20T05:51:01.711Z,11.90
2019-04-20T05:51:41.013Z,11.70
2019-04-20T05:52:31.570Z,12.20
2019-04-20T05:52:59.752Z,13.60
2019-04-20T05:53:37.062Z,12.60
2019-04-20T05:54:02.680Z,11.60
2019-04-20T05:54:38.814Z,11.40
2019-04-20T05:55:16.340Z,12.60
2019-04-20T05:55:53.251Z,13.70
2019-04-20T05:56:30.668Z,14.10
2019-04-20T05:57:05.466Z,13.10
2019-04-20T05:57:36.222Z,11.60
2019-04-20T05:58:45.432Z,13.10
2019-04-20T05:59:23.078Z,14.10
2019-04-20T06:00:01.573Z,12.80
2019-04-20T06:00:37.464Z,12.00
2019-04-20T06:01:08.876Z,12.40
2019-04-20T06:01:47.648Z,13.50
2019-04-20T06:02:25.238Z,13.90
2019-04-20T06:02:56.105Z,13.20
2019-04-20T06:03:25.924Z,12.00
2019-04-20T06:04:03.041Z,11.30
2019-04-20T06:04:54.187Z,11.80
2019-04-20T06:05:17.774Z,13.00
2019-04-20T06:06:00.577Z,12.40
2019-04-20T06:06:28.907Z,12.10
2019-04-20T06:06:59.796Z,11.60
2019-04-20T06:07:38.469Z,10.10
2019-04-20T06:08:14.969Z,11.80
2019-04-20T06:08:56.620Z,12.60
2019-04-20T06:09:30.769Z,11.60
2019-04-20T06:10:06.033Z,11.40
2019-04-20T06:10:38.158Z,11.10
2019-04-20T06:11:09.374Z,11.90
2019-04-20T06:11:56.221Z,12.60
2019-04-20T06:12:19.826Z,12.90
2019-04-20T06:12:55.413Z,12.30
2019-04-20T06:13:27.731Z,11.90
2019-04-20T06:13:57.783Z,11.80
2019-04-20T06:14:39.484Z,11.80
2019-04-20T06:15:14.475Z,12.50
2019-04-20T06:16:00.582Z,11.50
2019-04-20T06:16:29.902Z,11.10
2019-04-20T06:17:02.934Z,11.70
2019-04-20T06:17:39.312Z,11.90
2019-04-20T06:18:13.249Z,12.40
2019-04-20T06:18:49.573Z,12.20
2019-04-20T06:19:31.298Z,11.40
2019-04-20T06:20:05.176Z,11.30
2019-04-20T06:20:50.409Z,12.60
2019-04-20T06:21:20.153Z,13.70
2019-04-20T06:21:53.041Z,12.30
2019-04-20T06:22:31.177Z,11.60
2019-04-20T06:23:09.481Z,11.50
2019-04-20T06:23:53.089Z,12.00
2019-04-20T06:24:10.667Z,11.90
2019-04-20T06:24:52.798Z,12.30
2019-04-20T06:27:09.130Z,11.10
2019-04-20T06:27:48.938Z,12.80
2019-04-20T06:28:17.347Z,12.80
2019-04-20T06:28:46.442Z,11.80
2019-04-20T06:29:23.561Z,11.00
2019-04-20T06:30:01.191Z,10.60
2019-04-20T06:30:40.632Z,11.30
2019-04-20T06:31:22.704Z,11.70
2019-04-20T06:31:52.784Z,11.20
2019-04-20T06:32:37.399Z,10.40
2019-04-20T06:33:09.051Z,11.40
2019-04-20T06:33:55.215Z,11.00
2019-04-20T06:34:46.532Z,10.20
2019-04-20T06:35:33.594Z,9.80
2019-04-20T06:36:42.966Z,11.20
2019-04-20T06:37:00.884Z,10.30
2019-04-20T06:37:56.503Z,10.30
2019-04-20T06:38:38.673Z,11.50
2019-04-20T06:39:02.375Z,12.30
2019-04-20T06:39:40.396Z,11.10
2019-04-20T06:40:24.231Z,10.30
2019-04-20T06:41:21.099Z,10.70
2019-04-20T06:42:21.951Z,10.80
2019-04-20T06:43:04.095Z,10.70
2019-04-20T06:43:43.295Z,10.00
2019-04-20T06:44:16.406Z,9.70
2019-04-20T06:44:45.485Z,11.10
2019-04-20T06:45:27.798Z,10.90
2019-04-20T06:46:05.597Z,10.50
2019-04-20T06:46:37.482Z,9.60
2019-04-20T06:47:54.602Z,11.40
2019-04-20T06:48:30.912Z,11.20
2019-04-20T06:49:05.596Z,10.60
2019-04-20T06:49:33.175Z,10.10
2019-04-20T06:50:11.434Z,10.90
2019-04-20T06:50:40.529Z,11.50
2019-04-20T06:51:22.248Z,10.90
2019-04-20T06:51:52.949Z,10.40
2019-04-20T06:52:32.344Z,9.30
2019-04-20T06:53:12.876Z,10.40
2019-04-20T06:53:45.301Z,11.20
2019-04-20T06:54:08.157Z,10.80
2019-04-20T06:54:48.584Z,9.80
2019-04-20T06:55:19.703Z,10.30
2019-04-20T06:56:08.404Z,10.40
2019-04-20T06:56:45.463Z,10.00
2019-04-20T06:57:09.981Z,9.60
2019-04-20T06:58:01.537Z,9.20
2019-04-20T06:58:39.107Z,10.40
2019-04-20T06:59:06.482Z,11.80
2019-04-20T06:59:39.052Z,10.90
2019-04-20T07:00:12.831Z,9.60
2019-04-20T07:00:55.372Z,8.80
2019-04-20T07:01:17.432Z,9.00
2019-04-20T07:02:02.967Z,10.00
2019-04-20T07:02:38.643Z,10.80
2019-04-20T07:03:05.758Z,9.60
2019-04-20T07:04:10.776Z,9.10
2019-04-20T07:04:36.538Z,8.90
2019-04-20T07:05:25.782Z,10.60
2019-04-20T07:06:24.499Z,10.10
2019-04-20T07:07:21.189Z,9.50
2019-04-20T07:07:54.317Z,9.50
2019-04-20T07:08:45.104Z,9.50
2019-04-20T07:09:07.535Z,9.40
2019-04-20T07:09:49.073Z,9.10
2019-04-20T07:10:53.159Z,10.00
2019-04-20T07:11:24.001Z,10.60
2019-04-20T07:11:56.605Z,10.20
2019-04-20T07:12:27.236Z,9.30
2019-04-20T07:13:02.722Z,10.30
2019-04-20T07:13:35.936Z,11.00
2019-04-20T07:14:04.920Z,10.70
2019-04-20T07:14:43.315Z,10.40
2019-04-20T07:15:23.197Z,10.20
2019-04-20T07:15:57.226Z,10.30
2019-04-20T07:16:40.879Z,11.20
2019-04-20T07:17:28.422Z,14.30
2019-04-20T07:17:58.968Z,58.00
2019-04-20T07:18:29.953Z,76.60
2019-04-20T07:19:01.014Z,88.90
2019-04-20T07:19:39.093Z,95.10
2019-04-20T07:20:10.536Z,139.70
2019-04-20T07:20:56.782Z,93.20
2019-04-20T07:21:40.558Z,88.90
2019-04-20T07:22:10.511Z,110.70
2019-04-20T07:22:43.992Z,94.60
2019-04-20T07:23:21.356Z,88.80
2019-04-20T07:23:51.669Z,60.70
2019-04-20T07:24:24.946Z,29.30
2019-04-20T07:24:59.237Z,42.10
2019-04-20T07:25:33.194Z,25.30
2019-04-20T07:26:09.339Z,18.60
2019-04-20T07:26:44.962Z,15.60
2019-04-20T07:27:19.986Z,44.00
2019-04-20T07:27:56.485Z,22.80
2019-04-20T07:28:35.517Z,20.20
2019-04-20T07:29:08.744Z,13.70
2019-04-20T07:29:44.916Z,11.80
2019-04-20T07:30:12.693Z,14.20
2019-04-20T07:30:52.097Z,14.70
2019-04-20T07:31:27.735Z,10.80
2019-04-20T07:31:53.814Z,11.40
2019-04-20T07:32:43.834Z,11.90
2019-04-20T07:33:17.281Z,11.90
2019-04-20T07:33:46.496Z,15.90
2019-04-20T07:34:25.123Z,14.60
2019-04-20T07:34:55.770Z,12.60
2019-04-20T07:35:30.430Z,11.20
2019-04-20T07:36:15.858Z,10.00
2019-04-20T07:36:50.313Z,10.70
2019-04-20T07:37:46.697Z,13.00
2019-04-20T07:38:15.363Z,11.60
2019-04-20T07:38:38.119Z,11.70
2019-04-20T07:39:07.435Z,11.20
2019-04-20T07:39:46.612Z,10.60
2019-04-20T07:40:15.090Z,11.70
2019-04-20T07:40:50.349Z,11.60
2019-04-20T07:41:37.231Z,11.20
2019-04-20T07:42:10.385Z,10.30
2019-04-20T07:42:41.004Z,10.20
2019-04-20T07:43:09.300Z,11.20
2019-04-20T07:44:01.657Z,10.90
2019-04-20T07:44:37.621Z,10.30
2019-04-20T07:45:00.847Z,9.10
2019-04-20T07:45:33.249Z,9.80
2019-04-20T07:46:21.824Z,10.30
2019-04-20T07:46:56.391Z,10.90
2019-04-20T07:47:29.724Z,10.40
2019-04-20T07:48:01.773Z,9.30
2019-04-20T07:48:31.180Z,9.10
2019-04-20T07:49:07.662Z,10.50
2019-04-20T07:49:42.668Z,11.30
2019-04-20T07:50:13.493Z,10.30
2019-04-20T07:50:44.646Z,9.70
2019-04-20T07:51:17.640Z,9.90
2019-04-20T07:51:46.105Z,11.10
2019-04-20T07:52:32.998Z,10.70
2019-04-20T07:53:12.200Z,9.80
2019-04-20T07:53:45.994Z,9.90
2019-04-20T07:54:31.640Z,11.00
2019-04-20T07:55:19.307Z,12.80
2019-04-20T07:56:12.619Z,10.60
2019-04-20T07:56:48.658Z,9.70